Time;durP1;ratioP1;P1;durP2;ratioP2;P2;SDS_P1;SDS_P2;PMS_P1;PMS_P2;Temp;Humidity;BMP_temperature;BMP_pressure;BME280_temperature;BME280_humidity;BME280_pressure;Samples;Min_cycle;Max_cycle;Signal;HPM_P1;HPM_P2
2021/12/07 00:02:06;;;;;;;35.67;22.13;;;;;;;;;;5038048;28;20051;-84
2021/12/07 00:04:34;;;;;;;40.15;24.25;;;;;;;;;;5054283;28;20437;-84
2021/12/07 00:07:02;;;;;;;40.95;24.80;;;;;;;;;;5001321;28;20045;-84
2021/12/07 00:09:29;;;;;;;34.42;23.48;;;;;;;;;;5015290;28;20084;-84
2021/12/07 00:12:03;;;;;;;34.75;22.70;;;;;;;;;;5028880;28;20044;-84
2021/12/07 00:14:37;;;;;;;37.78;24.73;;;;;;;;;;5044684;28;20044;-83
2021/12/07 00:17:05;;;;;;;39.03;24.52;;;;;;;;;;5033167;28;20132;-84
2021/12/07 00:19:33;;;;;;;31.75;21.80;;;;;;;;;;5041826;28;20047;-84
2021/12/07 00:22:01;;;;;;;34.33;22.20;;;;;;;;;;5030802;28;20049;-84
2021/12/07 00:24:28;;;;;;;51.28;34.25;;;;;;;;;;5044398;28;20046;-84
2021/12/07 00:26:56;;;;;;;43.28;29.33;;;;;;;;;;5034318;28;20048;-84
2021/12/07 00:29:24;;;;;;;46.20;30.38;;;;;;;;;;5029583;28;20393;-84
2021/12/07 00:31:56;;;;;;;39.00;25.48;;;;;;;;;;5032056;28;20412;-84
2021/12/07 00:34:43;;;;;;;;;;;;;;;;;;5047728;28;20032;-85
2021/12/07 00:37:10;;;;;;;37.13;25.25;;;;;;;;;;5056586;28;19927;-84
2021/12/07 00:39:38;;;;;;;39.65;25.10;;;;;;;;;;5046132;28;20055;-84
2021/12/07 00:42:05;;;;;;;34.08;24.40;;;;;;;;;;5042342;28;20124;-84
2021/12/07 00:44:33;;;;;;;31.48;21.98;;;;;;;;;;5049289;28;20675;-84
2021/12/07 00:47:00;;;;;;;33.97;23.10;;;;;;;;;;5035818;28;20132;-83
2021/12/07 00:49:28;;;;;;;41.55;24.52;;;;;;;;;;5044559;28;20127;-84
2021/12/07 00:51:55;;;;;;;28.00;20.77;;;;;;;;;;5015030;28;21412;-85
2021/12/07 00:54:23;;;;;;;29.67;21.30;;;;;;;;;;5039558;28;20132;-84
2021/12/07 00:56:50;;;;;;;29.85;20.30;;;;;;;;;;5000214;28;20463;-85
2021/12/07 00:59:19;;;;;;;31.98;21.30;;;;;;;;;;5027728;28;20030;-84
2021/12/07 01:01:46;;;;;;;33.78;22.15;;;;;;;;;;5039920;28;20041;-84
2021/12/07 01:04:14;;;;;;;32.88;20.30;;;;;;;;;;5024530;28;20049;-84
2021/12/07 01:09:29;;;;;;;30.35;20.17;;;;;;;;;;5030623;28;20132;-84
2021/12/07 01:25:59;;;;;;;31.98;20.60;;;;;;;;;;5016496;28;20412;-83
2021/12/07 01:28:41;;;;;;;29.88;20.02;;;;;;;;;;5013454;28;20061;-84
2021/12/07 01:45:00;;;;;;;26.95;18.27;;;;;;;;;;5013658;28;20049;-84
2021/12/07 01:47:43;;;;;;;40.65;23.00;;;;;;;;;;5003438;28;20139;-84
2021/12/07 01:59:32;;;;;;;35.05;21.52;;;;;;;;;;5053859;28;20039;-84
2021/12/07 02:00:56;;;;;;;32.67;21.05;;;;;;;;;;5049253;28;20116;-84
2021/12/07 02:03:24;;;;;;;34.92;20.65;;;;;;;;;;5022710;28;20044;-84
2021/12/07 02:05:52;;;;;;;31.25;20.23;;;;;;;;;;5032907;28;20051;-84
2021/12/07 02:08:19;;;;;;;30.05;20.48;;;;;;;;;;5013159;28;20485;-84
2021/12/07 02:10:47;;;;;;;31.25;19.98;;;;;;;;;;5022369;28;20049;-83
2021/12/07 02:14:14;;;;;;;47.22;25.98;;;;;;;;;;5030640;28;20037;-84
2021/12/07 02:16:10;;;;;;;29.05;19.90;;;;;;;;;;5028560;28;20040;-83
2021/12/07 02:18:38;;;;;;;32.00;20.45;;;;;;;;;;5032293;28;20045;-84
2021/12/07 02:21:18;;;;;;;33.00;21.83;;;;;;;;;;5037002;28;20111;-84
2021/12/07 02:23:48;;;;;;;34.25;20.83;;;;;;;;;;5035224;28;20450;-84
2021/12/07 02:26:19;;;;;;;33.60;21.27;;;;;;;;;;5017429;28;20446;-83
2021/12/07 02:28:49;;;;;;;38.45;21.58;;;;;;;;;;5030387;28;20046;-83
2021/12/07 02:31:16;;;;;;;31.77;20.77;;;;;;;;;;5047166;28;20065;-83
2021/12/07 02:33:44;;;;;;;30.67;20.70;;;;;;;;;;5023410;28;20064;-86
2021/12/07 02:36:12;;;;;;;37.28;22.33;;;;;;;;;;5038222;28;20036;-84
2021/12/07 02:38:39;;;;;;;33.25;21.60;;;;;;;;;;5039196;28;20064;-83
2021/12/07 02:41:07;;;;;;;36.50;22.00;;;;;;;;;;5047675;28;20033;-83
2021/12/07 02:43:35;;;;;;;32.28;20.20;;;;;;;;;;5049934;28;20059;-83
2021/12/07 02:46:04;;;;;;;40.55;22.33;;;;;;;;;;5029568;28;20036;-84
2021/12/07 02:48:31;;;;;;;38.72;23.05;;;;;;;;;;5034842;28;20053;-85
2021/12/07 02:51:01;;;;;;;35.53;21.90;;;;;;;;;;5034116;28;20765;-84
2021/12/07 02:53:32;;;;;;;33.40;21.38;;;;;;;;;;5000160;28;20164;-84
2021/12/07 02:56:01;;;;;;;33.28;20.77;;;;;;;;;;5034130;28;20043;-84
2021/12/07 02:58:32;;;;;;;32.05;20.67;;;;;;;;;;5024645;28;20041;-84
2021/12/07 03:01:08;;;;;;;31.73;20.83;;;;;;;;;;5027796;28;20036;-84
2021/12/07 03:04:00;;;;;;;36.20;21.60;;;;;;;;;;5021876;28;20041;-84
2021/12/07 03:26:07;;;;;;;27.63;18.83;;;;;;;;;;5044760;28;20621;-83
2021/12/07 03:28:43;;;;;;;31.95;20.95;;;;;;;;;;5030699;28;20049;-84
2021/12/07 03:31:12;;;;;;;29.63;19.60;;;;;;;;;;5020617;28;20040;-84
2021/12/07 03:33:43;;;;;;;27.20;19.00;;;;;;;;;;5032542;28;20564;-84
2021/12/07 03:36:11;;;;;;;36.47;22.33;;;;;;;;;;5032393;28;20032;-85
2021/12/07 03:38:40;;;;;;;30.85;19.48;;;;;;;;;;5039309;28;20041;-85
2021/12/07 03:41:08;;;;;;;30.13;20.63;;;;;;;;;;5026625;28;20057;-85
2021/12/07 03:43:36;;;;;;;29.85;19.13;;;;;;;;;;5021692;28;20086;-84
2021/12/07 03:46:05;;;;;;;30.75;19.88;;;;;;;;;;5017165;28;20052;-84
2021/12/07 03:48:34;;;;;;;31.58;20.65;;;;;;;;;;5032131;28;20041;-84
2021/12/07 03:51:01;;;;;;;29.95;19.50;;;;;;;;;;5027967;28;20060;-85
2021/12/07 03:53:29;;;;;;;28.98;18.70;;;;;;;;;;5033551;28;20033;-84
2021/12/07 03:55:58;;;;;;;29.95;19.48;;;;;;;;;;5033380;28;20045;-84
2021/12/07 03:58:27;;;;;;;29.98;19.52;;;;;;;;;;5032829;28;20052;-85
2021/12/07 04:00:54;;;;;;;29.05;19.67;;;;;;;;;;5028446;28;20041;-84
2021/12/07 04:03:22;;;;;;;34.78;20.52;;;;;;;;;;5017218;28;20073;-84
2021/12/07 04:05:54;;;;;;;28.20;18.35;;;;;;;;;;5016163;28;20425;-84
2021/12/07 04:08:24;;;;;;;30.52;20.95;;;;;;;;;;5058141;28;20051;-84
2021/12/07 04:10:53;;;;;;;30.55;20.10;;;;;;;;;;5031695;28;20129;-85
2021/12/07 04:13:21;;;;;;;32.40;20.40;;;;;;;;;;5036789;28;20044;-85
2021/12/07 04:15:48;;;;;;;39.85;23.40;;;;;;;;;;5024774;28;20115;-85
2021/12/07 04:18:15;;;;;;;24.75;17.08;;;;;;;;;;5016138;28;20493;-85
2021/12/07 04:20:44;;;;;;;37.65;21.38;;;;;;;;;;5035436;23;20739;-85
2021/12/07 04:23:12;;;;;;;33.03;20.52;;;;;;;;;;5015674;28;20095;-85
2021/12/07 04:25:40;;;;;;;35.97;22.15;;;;;;;;;;5048187;28;20095;-85
2021/12/07 04:28:07;;;;;;;33.42;20.70;;;;;;;;;;5054595;28;20040;-85
2021/12/07 04:30:36;;;;;;;33.78;21.60;;;;;;;;;;5039238;28;20071;-85
2021/12/07 04:33:06;;;;;;;31.17;20.50;;;;;;;;;;5032766;28;20038;-85
2021/12/07 04:35:35;;;;;;;30.90;20.00;;;;;;;;;;5039638;28;20567;-85
2021/12/07 04:38:03;;;;;;;37.72;21.83;;;;;;;;;;5049197;28;20036;-85
2021/12/07 04:40:31;;;;;;;36.58;23.10;;;;;;;;;;5052670;28;20052;-85
2021/12/07 04:42:59;;;;;;;34.97;21.40;;;;;;;;;;5038605;28;20423;-85
2021/12/07 04:57:34;;;;;;;44.17;24.75;;;;;;;;;;5039661;28;20063;-85
2021/12/07 04:58:50;;;;;;;36.75;22.45;;;;;;;;;;5049563;28;20041;-84
2021/12/07 05:01:18;;;;;;;32.88;21.05;;;;;;;;;;5031885;28;20037;-84
2021/12/07 05:03:48;;;;;;;34.88;23.02;;;;;;;;;;5031222;28;20131;-85
2021/12/07 05:06:17;;;;;;;37.83;23.55;;;;;;;;;;5031422;28;20036;-85
2021/12/07 05:08:49;;;;;;;35.50;22.58;;;;;;;;;;5036156;28;20048;-85
2021/12/07 05:11:43;;;;;;;36.03;23.30;;;;;;;;;;5049320;28;20041;-85
2021/12/07 05:14:17;;;;;;;33.17;21.92;;;;;;;;;;5049447;28;20071;-85
2021/12/07 05:38:43;;;;;;;38.90;24.20;;;;;;;;;;5006688;28;20621;-86
2021/12/07 05:41:10;;;;;;;36.42;23.40;;;;;;;;;;5037686;28;20041;-86
2021/12/07 05:43:38;;;;;;;33.15;22.83;;;;;;;;;;5030312;28;20095;-85
2021/12/07 05:46:05;;;;;;;40.17;25.17;;;;;;;;;;5038020;28;20123;-86
2021/12/07 05:48:33;;;;;;;31.58;22.73;;;;;;;;;;5038866;28;20455;-85
2021/12/07 05:51:01;;;;;;;36.05;24.27;;;;;;;;;;5035098;28;20044;-86
2021/12/07 05:53:28;;;;;;;39.38;25.10;;;;;;;;;;5035902;28;20041;-86
2021/12/07 05:55:56;;;;;;;38.35;25.00;;;;;;;;;;5061169;28;20044;-83
2021/12/07 05:58:24;;;;;;;40.78;24.77;;;;;;;;;;5054344;28;20048;-83
2021/12/07 06:00:57;;;;;;;31.98;22.25;;;;;;;;;;5035488;28;20029;-83
2021/12/07 06:03:26;;;;;;;36.75;24.17;;;;;;;;;;5036455;28;20045;-84
2021/12/07 06:05:54;;;;;;;35.25;24.10;;;;;;;;;;5052841;28;20076;-84
2021/12/07 06:08:22;;;;;;;40.85;25.65;;;;;;;;;;5021898;28;20053;-84
2021/12/07 06:10:50;;;;;;;34.05;22.92;;;;;;;;;;5052021;28;20044;-84
2021/12/07 06:13:21;;;;;;;34.13;23.05;;;;;;;;;;5032970;28;20504;-84
2021/12/07 06:15:50;;;;;;;30.48;19.88;;;;;;;;;;5056478;28;20064;-84
2021/12/07 06:18:17;;;;;;;33.17;22.02;;;;;;;;;;5036144;28;20072;-83
2021/12/07 06:20:45;;;;;;;33.33;23.05;;;;;;;;;;5037260;28;20046;-83
2021/12/07 06:23:14;;;;;;;30.02;21.80;;;;;;;;;;5057565;28;20040;-83
2021/12/07 06:25:41;;;;;;;29.27;20.35;;;;;;;;;;5035563;28;20147;-83
2021/12/07 06:28:09;;;;;;;32.78;22.95;;;;;;;;;;5037913;28;20047;-84
2021/12/07 06:30:42;;;;;;;30.70;21.15;;;;;;;;;;5030691;28;20037;-83
2021/12/07 06:33:10;;;;;;;23.48;17.27;;;;;;;;;;5054381;28;20025;-84
2021/12/07 06:35:38;;;;;;;28.85;19.85;;;;;;;;;;5016141;28;20057;-83
2021/12/07 06:38:06;;;;;;;27.45;19.15;;;;;;;;;;5051122;28;20041;-86
2021/12/07 06:40:33;;;;;;;22.42;16.58;;;;;;;;;;5051507;28;20511;-85
2021/12/07 06:43:01;;;;;;;24.58;17.95;;;;;;;;;;5028815;28;20132;-86
2021/12/07 06:45:29;;;;;;;21.73;16.42;;;;;;;;;;5038797;28;20112;-86
2021/12/07 06:47:57;;;;;;;20.80;16.33;;;;;;;;;;5059287;28;20514;-86
2021/12/07 06:50:25;;;;;;;20.77;16.27;;;;;;;;;;5045955;28;20045;-86
2021/12/07 06:52:53;;;;;;;21.30;16.27;;;;;;;;;;5047995;28;20120;-86
2021/12/07 06:55:21;;;;;;;23.55;17.45;;;;;;;;;;5070314;28;20117;-87
2021/12/07 06:57:49;;;;;;;21.70;16.67;;;;;;;;;;5004128;28;20060;-87
2021/12/07 07:00:17;;;;;;;22.27;16.25;;;;;;;;;;5034353;28;20049;-87
2021/12/07 07:02:48;;;;;;;24.15;16.17;;;;;;;;;;5033879;28;20056;-86
2021/12/07 07:05:17;;;;;;;20.45;15.50;;;;;;;;;;5032503;28;20046;-86
2021/12/07 07:07:44;;;;;;;19.67;14.88;;;;;;;;;;5050172;28;20431;-87
2021/12/07 07:10:34;;;;;;;22.02;16.83;;;;;;;;;;5016521;28;20034;-87
2021/12/07 07:13:28;;;;;;;18.20;13.88;;;;;;;;;;5041676;28;20052;-88
2021/12/07 07:16:43;;;;;;;;;;;;;;;;;;;;;
2021/12/07 07:27:39;;;;;;;21.67;15.88;;;;;;;;;;4990033;28;20050;-77
2021/12/07 07:30:07;;;;;;;20.98;15.30;;;;;;;;;;4992305;28;20039;-79
2021/12/07 07:32:36;;;;;;;22.88;16.63;;;;;;;;;;5013733;28;20131;-77
2021/12/07 07:35:06;;;;;;;20.42;16.17;;;;;;;;;;5000989;28;20108;-75
2021/12/07 07:37:33;;;;;;;20.38;14.80;;;;;;;;;;4992537;28;20490;-76
2021/12/07 07:40:01;;;;;;;20.98;15.68;;;;;;;;;;4977160;28;20460;-75
2021/12/07 07:42:33;;;;;;;27.67;16.95;;;;;;;;;;5001287;28;20030;-76
2021/12/07 07:45:09;;;;;;;19.60;14.60;;;;;;;;;;4992793;28;20063;-75
2021/12/07 07:47:37;;;;;;;19.58;15.38;;;;;;;;;;5011399;28;20124;-75
2021/12/07 07:50:05;;;;;;;17.55;13.95;;;;;;;;;;5010194;28;20046;-75
2021/12/07 07:52:33;;;;;;;20.67;15.38;;;;;;;;;;4991614;28;20490;-75
2021/12/07 07:55:01;;;;;;;16.98;13.38;;;;;;;;;;5005026;28;20037;-76
2021/12/07 07:57:28;;;;;;;17.08;14.00;;;;;;;;;;4993303;28;20054;-77
2021/12/07 07:59:55;;;;;;;17.38;14.82;;;;;;;;;;5009064;28;20533;-75
2021/12/07 08:02:23;;;;;;;15.20;13.15;;;;;;;;;;5009782;28;20129;-78
2021/12/07 08:04:50;;;;;;;18.02;15.15;;;;;;;;;;5013320;28;20129;-78
2021/12/07 08:07:18;;;;;;;22.15;15.45;;;;;;;;;;5012155;28;20522;-75
2021/12/07 08:09:45;;;;;;;20.85;16.58;;;;;;;;;;4995496;28;20048;-75
2021/12/07 08:12:13;;;;;;;19.63;14.65;;;;;;;;;;4993013;28;20375;-77
2021/12/07 08:14:40;;;;;;;16.27;14.57;;;;;;;;;;5010973;28;20061;-75
2021/12/07 08:17:07;;;;;;;15.50;13.05;;;;;;;;;;5011200;28;20061;-76
2021/12/07 08:19:36;;;;;;;14.95;11.95;;;;;;;;;;4965070;28;20073;-75
2021/12/07 08:22:04;;;;;;;13.57;12.20;;;;;;;;;;4997984;28;20124;-75
2021/12/07 08:24:34;;;;;;;16.30;12.45;;;;;;;;;;4993634;28;20401;-76
2021/12/07 08:27:01;;;;;;;16.67;12.52;;;;;;;;;;5010605;28;20066;-75
2021/12/07 08:29:49;;;;;;;14.07;12.65;;;;;;;;;;5010696;28;20048;-75
2021/12/07 08:32:16;;;;;;;12.50;11.20;;;;;;;;;;5010068;28;20050;-76
2021/12/07 08:34:43;;;;;;;18.27;13.07;;;;;;;;;;5009877;28;20153;-76
2021/12/07 08:37:11;;;;;;;16.17;12.57;;;;;;;;;;5027467;28;20056;-76
2021/12/07 08:39:38;;;;;;;14.25;12.75;;;;;;;;;;5030694;28;20084;-77
2021/12/07 08:42:06;;;;;;;15.25;10.30;;;;;;;;;;5014474;28;20133;-75
2021/12/07 08:44:34;;;;;;;15.88;12.43;;;;;;;;;;5011278;28;20056;-75
2021/12/07 08:47:01;;;;;;;14.52;12.18;;;;;;;;;;5014504;28;20543;-77
2021/12/07 08:49:29;;;;;;;17.88;12.90;;;;;;;;;;5013077;28;20050;-78
2021/12/07 08:51:56;;;;;;;14.02;12.63;;;;;;;;;;5009858;28;20080;-75
2021/12/07 09:02:04;;;;;;;14.10;11.88;;;;;;;;;;4996731;28;20137;-76
2021/12/07 09:04:32;;;;;;;14.48;12.93;;;;;;;;;;5010695;28;20506;-76
2021/12/07 09:07:00;;;;;;;14.25;11.45;;;;;;;;;;5010086;28;20137;-77
2021/12/07 09:09:28;;;;;;;13.23;11.88;;;;;;;;;;5009410;28;20533;-75
2021/12/07 09:11:55;;;;;;;15.48;12.10;;;;;;;;;;5003016;28;20434;-75
2021/12/07 09:14:30;;;;;;;11.50;10.30;;;;;;;;;;5012547;28;20053;-76
2021/12/07 09:16:57;;;;;;;14.05;11.73;;;;;;;;;;5029431;28;20048;-77
2021/12/07 09:19:25;;;;;;;11.25;10.05;;;;;;;;;;5029995;28;20038;-76
2021/12/07 09:21:52;;;;;;;12.52;10.60;;;;;;;;;;4997949;28;20046;-75
2021/12/07 09:24:20;;;;;;;14.45;10.80;;;;;;;;;;5010310;28;20038;-75
2021/12/07 09:26:48;;;;;;;13.55;10.98;;;;;;;;;;5010309;28;20137;-77
2021/12/07 09:29:15;;;;;;;9.68;8.73;;;;;;;;;;4992805;28;20054;-76
2021/12/07 09:31:43;;;;;;;10.70;9.45;;;;;;;;;;5009743;28;20074;-76
2021/12/07 09:34:11;;;;;;;13.55;11.68;;;;;;;;;;5008051;28;20495;-75
2021/12/07 09:36:40;;;;;;;13.20;11.45;;;;;;;;;;5010272;28;20157;-76
2021/12/07 09:39:08;;;;;;;12.93;11.50;;;;;;;;;;4993856;28;20562;-75
2021/12/07 09:41:35;;;;;;;14.98;12.10;;;;;;;;;;5010356;28;20041;-75
2021/12/07 09:44:04;;;;;;;12.02;10.82;;;;;;;;;;4992855;28;20467;-75
2021/12/07 09:46:31;;;;;;;13.25;11.95;;;;;;;;;;5021092;28;20073;-75
2021/12/07 09:48:59;;;;;;;12.18;10.68;;;;;;;;;;5029779;28;20041;-78
2021/12/07 09:51:27;;;;;;;14.18;10.70;;;;;;;;;;5018812;28;20037;-75
2021/12/07 09:53:56;;;;;;;11.85;10.65;;;;;;;;;;5009555;28;20088;-75
2021/12/07 09:56:24;;;;;;;11.75;10.15;;;;;;;;;;5002374;28;20585;-76
2021/12/07 09:58:53;;;;;;;11.85;10.65;;;;;;;;;;5029859;28;20046;-77
2021/12/07 10:01:21;;;;;;;10.35;9.32;;;;;;;;;;5019856;28;20275;-75
2021/12/07 10:03:49;;;;;;;10.50;9.50;;;;;;;;;;5009860;28;20069;-76
2021/12/07 10:06:17;;;;;;;10.50;9.40;;;;;;;;;;4992202;28;20038;-75
2021/12/07 10:08:45;;;;;;;12.43;11.13;;;;;;;;;;4992370;28;20057;-76
2021/12/07 10:11:12;;;;;;;11.85;10.65;;;;;;;;;;5009904;28;20072;-79
2021/12/07 10:13:41;;;;;;;14.05;10.88;;;;;;;;;;4992459;28;20038;-76
2021/12/07 10:16:09;;;;;;;11.63;10.40;;;;;;;;;;5017607;28;20129;-78
2021/12/07 10:18:38;;;;;;;11.88;10.70;;;;;;;;;;5029407;28;20400;-75
2021/12/07 10:21:25;;;;;;;11.45;9.80;;;;;;;;;;5010413;28;20038;-75
2021/12/07 10:23:56;;;;;;;10.82;9.30;;;;;;;;;;5018168;28;20050;-75
2021/12/07 10:26:25;;;;;;;10.57;9.38;;;;;;;;;;5017654;28;20072;-76
2021/12/07 10:28:54;;;;;;;12.20;9.25;;;;;;;;;;5028801;28;20103;-74
2021/12/07 10:31:23;;;;;;;16.33;9.15;;;;;;;;;;5010870;28;20123;-75
2021/12/07 10:33:53;;;;;;;11.23;8.85;;;;;;;;;;5029118;28;20056;-74
2021/12/07 10:36:25;;;;;;;10.60;9.43;;;;;;;;;;5025089;28;20485;-75
2021/12/07 10:38:58;;;;;;;12.32;9.45;;;;;;;;;;5009265;28;20073;-75
2021/12/07 10:41:26;;;;;;;10.90;9.02;;;;;;;;;;5009212;28;20125;-75
2021/12/07 10:43:58;;;;;;;12.77;9.45;;;;;;;;;;5010283;28;20057;-77
2021/12/07 10:46:25;;;;;;;14.35;9.70;;;;;;;;;;4995342;28;20533;-75
2021/12/07 10:49:08;;;;;;;11.65;9.63;;;;;;;;;;5012290;28;20494;-74
2021/12/07 10:51:36;;;;;;;9.48;8.40;;;;;;;;;;5014885;28;20064;-77
2021/12/07 10:54:03;;;;;;;9.60;8.60;;;;;;;;;;5011980;28;20073;-75
2021/12/07 10:56:34;;;;;;;11.80;8.80;;;;;;;;;;5029595;23;20133;31
2021/12/07 10:59:03;;;;;;;9.80;8.77;;;;;;;;;;4969131;28;20071;-75
2021/12/07 11:01:35;;;;;;;10.80;8.27;;;;;;;;;;4965224;28;20533;-75
2021/12/07 11:04:24;;;;;;;11.90;9.88;;;;;;;;;;4961566;29;20506;-75
2021/12/07 11:07:10;;;;;;;12.63;9.30;;;;;;;;;;4943972;29;20076;-75
2021/12/07 11:09:46;;;;;;;8.57;7.70;;;;;;;;;;4962063;28;20068;-75
2021/12/07 11:12:18;;;;;;;10.85;8.15;;;;;;;;;;4945794;29;20086;-75
2021/12/07 11:14:51;;;;;;;;;;;;;;;;;;4949621;29;20043;-75
2021/12/07 11:17:29;;;;;;;10.40;8.55;;;;;;;;;;4956841;29;19953;-74
2021/12/07 11:19:57;;;;;;;11.23;10.05;;;;;;;;;;4958423;28;20069;-75
2021/12/07 11:22:34;;;;;;;10.00;8.70;;;;;;;;;;4955726;28;20071;-75
2021/12/07 11:25:03;;;;;;;12.13;9.45;;;;;;;;;;4949190;29;20098;-77
2021/12/07 11:30:19;;;;;;;10.93;9.02;;;;;;;;;;4933380;29;20114;-77
2021/12/07 11:32:55;;;;;;;9.77;8.88;;;;;;;;;;4933498;29;20102;-77
2021/12/07 11:35:35;;;;;;;9.77;7.65;;;;;;;;;;4951536;23;20166;-75
2021/12/07 11:38:05;;;;;;;8.98;8.07;;;;;;;;;;4952846;28;20047;-73
2021/12/07 11:40:34;;;;;;;13.57;8.60;;;;;;;;;;4987939;28;20109;-73
2021/12/07 11:43:01;;;;;;;12.68;7.68;;;;;;;;;;4971701;28;20129;-73
2021/12/07 11:45:30;;;;;;;8.95;7.50;;;;;;;;;;4970866;28;20078;-75
2021/12/07 11:48:04;;;;;;;8.15;7.35;;;;;;;;;;4971628;28;20102;-75
2021/12/07 11:50:31;;;;;;;9.20;7.63;;;;;;;;;;4975000;28;20182;-74
2021/12/07 11:53:00;;;;;;;9.65;8.43;;;;;;;;;;4960593;28;20089;-74
2021/12/07 11:55:28;;;;;;;12.15;8.45;;;;;;;;;;4972237;23;20045;-76
2021/12/07 11:57:56;;;;;;;11.70;8.98;;;;;;;;;;4981888;28;20137;-78
2021/12/07 12:00:35;;;;;;;13.23;8.27;;;;;;;;;;4970399;28;20125;-77
2021/12/07 12:03:04;;;;;;;8.20;7.40;;;;;;;;;;4954659;28;20506;-76
2021/12/07 12:05:31;;;;;;;8.35;7.10;;;;;;;;;;4974002;28;20054;-75
2021/12/07 12:07:59;;;;;;;15.93;12.00;;;;;;;;;;4979849;23;20403;-80
2021/12/07 12:10:32;;;;;;;10.10;8.63;;;;;;;;;;4980673;28;20512;-77
2021/12/07 12:13:12;;;;;;;10.23;8.18;;;;;;;;;;4972387;28;20567;-78
2021/12/07 12:15:46;;;;;;;10.32;8.73;;;;;;;;;;4977180;28;20129;-79
2021/12/07 12:18:24;;;;;;;8.40;7.13;;;;;;;;;;4964014;28;20038;-78
2021/12/07 12:21:15;;;;;;;9.15;7.43;;;;;;;;;;4986695;28;20096;-79
2021/12/07 12:23:51;;;;;;;10.35;7.65;;;;;;;;;;4995897;28;20043;-79
2021/12/07 12:26:24;;;;;;;9.70;7.55;;;;;;;;;;4994028;28;20126;-79
2021/12/07 12:28:51;;;;;;;10.68;7.97;;;;;;;;;;4966773;28;21383;-77
2021/12/07 12:31:20;;;;;;;8.57;7.13;;;;;;;;;;4994708;28;20040;-79
2021/12/07 12:33:52;;;;;;;7.78;6.93;;;;;;;;;;4992994;28;20498;-79
2021/12/07 12:36:20;;;;;;;8.07;7.28;;;;;;;;;;4976884;28;20404;-79
2021/12/07 12:39:05;;;;;;;7.03;6.32;;;;;;;;;;4995969;28;20041;-79
2021/12/07 12:41:32;;;;;;;5.95;4.65;;;;;;;;;;4998500;28;20038;-80
2021/12/07 12:44:10;;;;;;;7.72;6.90;;;;;;;;;;4999652;28;20034;-79
2021/12/07 12:46:40;;;;;;;7.82;6.15;;;;;;;;;;4994316;28;20038;-78
2021/12/07 12:49:11;;;;;;;7.95;7.15;;;;;;;;;;4999962;28;20442;-78
2021/12/07 12:51:48;;;;;;;8.05;7.22;;;;;;;;;;5002197;28;20129;-77
2021/12/07 12:54:16;;;;;;;8.27;7.43;;;;;;;;;;4984030;28;20049;-79
2021/12/07 12:56:44;;;;;;;7.50;6.75;;;;;;;;;;5003468;28;20061;-78
2021/12/07 12:59:12;;;;;;;8.77;6.40;;;;;;;;;;4996865;28;20038;-79
2021/12/07 13:01:44;;;;;;;12.10;9.50;;;;;;;;;;5002538;28;20050;-78
2021/12/07 13:04:12;;;;;;;10.50;8.60;;;;;;;;;;4978272;28;20054;-78
2021/12/07 13:06:46;;;;;;;10.75;7.68;;;;;;;;;;5001055;28;20042;-76
2021/12/07 13:09:18;;;;;;;7.20;6.50;;;;;;;;;;4982132;28;20074;-77
2021/12/07 13:11:53;;;;;;;7.55;6.57;;;;;;;;;;4995162;28;20038;-78
2021/12/07 13:14:24;;;;;;;6.32;5.40;;;;;;;;;;5001052;28;20042;-79
2021/12/07 13:17:00;;;;;;;6.43;4.38;;;;;;;;;;4981580;28;20096;-77
2021/12/07 13:19:29;;;;;;;4.47;3.67;;;;;;;;;;4981127;28;20046;-78
2021/12/07 13:22:04;;;;;;;7.75;5.40;;;;;;;;;;4998631;28;20711;-79
2021/12/07 13:24:35;;;;;;;6.13;5.30;;;;;;;;;;4978054;28;20050;-78
2021/12/07 13:27:11;;;;;;;9.07;7.85;;;;;;;;;;4995038;28;20534;-79
2021/12/07 13:29:44;;;;;;;7.65;6.95;;;;;;;;;;4993627;28;20044;-78
2021/12/07 13:32:15;;;;;;;6.43;5.78;;;;;;;;;;4991171;28;20104;-81
2021/12/07 13:34:46;;;;;;;7.60;5.25;;;;;;;;;;4964330;28;20042;-78
2021/12/07 13:37:14;;;;;;;8.57;5.70;;;;;;;;;;4973056;28;20100;-79
2021/12/07 13:39:47;;;;;;;5.88;5.28;;;;;;;;;;4986395;28;20046;-78
2021/12/07 13:42:17;;;;;;;10.40;6.18;;;;;;;;;;5005899;28;20411;-79
2021/12/07 13:44:47;;;;;;;7.10;5.80;;;;;;;;;;5008805;28;20050;-79
2021/12/07 13:47:19;;;;;;;6.97;6.30;;;;;;;;;;4991752;28;20046;-78
2021/12/07 13:49:52;;;;;;;7.00;6.03;;;;;;;;;;4973425;28;20468;-76
2021/12/07 13:52:21;;;;;;;6.60;5.90;;;;;;;;;;4993170;28;20046;-79
2021/12/07 13:54:50;;;;;;;10.65;6.80;;;;;;;;;;4981476;28;20046;-79
2021/12/07 13:57:20;;;;;;;8.60;6.65;;;;;;;;;;4981639;28;20038;-78
2021/12/07 13:59:58;;;;;;;8.98;7.10;;;;;;;;;;4970064;28;20605;-79
2021/12/07 14:02:26;;;;;;;7.28;6.57;;;;;;;;;;4995374;28;20058;-79
2021/12/07 14:05:01;;;;;;;7.28;6.60;;;;;;;;;;4987901;28;20046;-78
2021/12/07 14:07:30;;;;;;;7.57;6.53;;;;;;;;;;4995357;28;20057;-79
2021/12/07 14:10:04;;;;;;;9.15;6.53;;;;;;;;;;4977137;28;20626;-79
2021/12/07 14:12:31;;;;;;;11.68;8.13;;;;;;;;;;4974650;28;20046;-79
2021/12/07 14:15:05;;;;;;;10.45;7.28;;;;;;;;;;4984752;28;20046;-76
2021/12/07 14:17:59;;;;;;;11.93;8.27;;;;;;;;;;4994496;28;20042;-79
2021/12/07 14:20:40;;;;;;;13.80;9.73;;;;;;;;;;4990116;28;20058;-79
2021/12/07 14:23:19;;;;;;;10.90;9.68;;;;;;;;;;4995384;28;20046;-77
2021/12/07 14:25:48;;;;;;;8.63;7.70;;;;;;;;;;4992178;28;20050;-77
2021/12/07 14:28:30;;;;;;;9.88;8.55;;;;;;;;;;4984467;28;20127;-78
2021/12/07 14:31:00;;;;;;;12.15;10.50;;;;;;;;;;4966869;28;20051;-78
2021/12/07 14:33:27;;;;;;;16.52;13.10;;;;;;;;;;4963106;28;20054;-78
2021/12/07 14:35:55;;;;;;;16.60;12.80;;;;;;;;;;4980681;28;20050;-80
2021/12/07 14:38:22;;;;;;;22.77;16.75;;;;;;;;;;4996866;28;20569;-78
2021/12/07 14:40:50;;;;;;;18.73;13.65;;;;;;;;;;4999955;28;20050;-78
2021/12/07 14:43:17;;;;;;;17.55;13.57;;;;;;;;;;5002311;28;20053;-78
2021/12/07 14:45:45;;;;;;;13.80;12.27;;;;;;;;;;4975369;28;20046;-78
2021/12/07 14:48:12;;;;;;;13.98;11.23;;;;;;;;;;4976061;28;20042;-79
2021/12/07 14:50:43;;;;;;;17.40;12.80;;;;;;;;;;4982133;28;20063;-79
2021/12/07 14:53:11;;;;;;;21.08;16.55;;;;;;;;;;5001532;28;20428;-79
2021/12/07 14:55:38;;;;;;;18.13;13.80;;;;;;;;;;4997015;28;20042;-77
2021/12/07 14:58:06;;;;;;;23.58;15.63;;;;;;;;;;4994976;28;20038;-79
2021/12/07 15:00:33;;;;;;;24.35;15.55;;;;;;;;;;4995794;28;20490;-79
2021/12/07 15:03:01;;;;;;;25.45;16.13;;;;;;;;;;4976080;28;20483;-76
2021/12/07 15:05:33;;;;;;;20.30;13.95;;;;;;;;;;4987229;28;20053;-78
2021/12/07 15:08:00;;;;;;;16.85;13.38;;;;;;;;;;4988502;28;20057;-79
2021/12/07 15:10:28;;;;;;;19.17;13.30;;;;;;;;;;4991010;28;20054;-77
2021/12/07 15:12:55;;;;;;;15.30;11.73;;;;;;;;;;4990526;28;20044;-79
2021/12/07 15:15:26;;;;;;;20.92;13.98;;;;;;;;;;4985388;28;20034;-76
2021/12/07 15:17:59;;;;;;;21.20;13.32;;;;;;;;;;4981893;28;20418;-81
2021/12/07 15:20:29;;;;;;;22.77;16.02;;;;;;;;;;5001240;28;20129;-78
2021/12/07 15:22:56;;;;;;;24.35;16.42;;;;;;;;;;4984163;28;20438;-82
2021/12/07 15:25:33;;;;;;;23.63;18.15;;;;;;;;;;5004576;28;20050;-78
2021/12/07 15:28:01;;;;;;;17.67;12.38;;;;;;;;;;5000818;28;20462;-78
2021/12/07 15:30:28;;;;;;;15.57;11.18;;;;;;;;;;4983881;28;21756;-77
2021/12/07 15:32:56;;;;;;;11.95;9.20;;;;;;;;;;4990753;28;20046;-79
2021/12/07 15:35:25;;;;;;;11.45;7.68;;;;;;;;;;5007331;28;20410;-79
2021/12/07 15:37:52;;;;;;;8.82;6.72;;;;;;;;;;4997968;28;20096;-79
2021/12/07 15:40:20;;;;;;;10.18;6.30;;;;;;;;;;4995478;28;20106;-80
2021/12/07 15:42:48;;;;;;;8.02;6.18;;;;;;;;;;4997975;28;20789;-80
2021/12/07 15:45:15;;;;;;;7.78;6.47;;;;;;;;;;5008726;28;20100;-78
2021/12/07 15:47:43;;;;;;;9.20;6.63;;;;;;;;;;5002484;28;20040;-79
2021/12/07 15:50:15;;;;;;;7.82;6.07;;;;;;;;;;4989785;28;20518;-78
2021/12/07 15:52:44;;;;;;;10.57;5.40;;;;;;;;;;4986460;28;20085;-79
2021/12/07 15:55:29;;;;;;;6.10;5.20;;;;;;;;;;5004242;28;20030;-77
2021/12/07 15:57:59;;;;;;;7.05;4.28;;;;;;;;;;5001817;28;20038;-79
2021/12/07 16:00:33;;;;;;;7.30;4.68;;;;;;;;;;4996226;28;20046;-79
2021/12/07 16:03:02;;;;;;;8.63;6.07;;;;;;;;;;5004035;28;20050;-78
2021/12/07 16:05:51;;;;;;;5.30;4.35;;;;;;;;;;4987664;28;20040;-76
2021/12/07 16:08:21;;;;;;;6.50;5.90;;;;;;;;;;4996283;28;20122;-78
2021/12/07 16:10:50;;;;;;;7.05;6.15;;;;;;;;;;5000399;28;20048;-78
2021/12/07 16:13:23;;;;;;;9.27;6.25;;;;;;;;;;5009469;28;20400;-80
2021/12/07 16:15:52;;;;;;;9.90;5.50;;;;;;;;;;4968330;28;20062;-77
2021/12/07 16:18:20;;;;;;;7.65;5.63;;;;;;;;;;4997684;28;20034;-78
2021/12/07 16:20:48;;;;;;;12.75;6.80;;;;;;;;;;4984951;28;20048;-78
2021/12/07 16:23:16;;;;;;;10.18;6.15;;;;;;;;;;4999893;28;20097;-77
2021/12/07 16:25:45;;;;;;;15.50;8.95;;;;;;;;;;4980408;28;20042;-77
2021/12/07 16:28:32;;;;;;;32.85;16.00;;;;;;;;;;5003371;28;20068;-77
2021/12/07 16:31:00;;;;;;;34.58;19.15;;;;;;;;;;4987189;28;20051;-79
2021/12/07 16:33:28;;;;;;;27.15;17.90;;;;;;;;;;4996986;28;20041;-81
2021/12/07 16:35:55;;;;;;;24.55;17.25;;;;;;;;;;5000208;28;20062;-79